Time;durP1;ratioP1;P1;durP2;ratioP2;P2;SDS_P1;SDS_P2;PMS_P1;PMS_P2;Temp;Humidity;BMP_temperature;BMP_pressure;BME280_temperature;BME280_humidity;BME280_pressure;Samples;Min_cycle;Max_cycle;Signal;HPM_P1;HPM_P2
2022/09/13 00:01:23;;;;;;;3.05;2.10;;;21.10;99.80;;;;;;5066230;28;20206;-30
2022/09/13 00:03:51;;;;;;;2.97;1.67;;;21.10;99.80;;;;;;5053358;28;20258;-30
2022/09/13 00:06:24;;;;;;;3.47;2.00;;;21.00;99.80;;;;;;5063895;28;20250;-31
2022/09/13 00:08:53;;;;;;;2.33;1.92;;;21.00;99.80;;;;;;5050515;28;20686;-30
2022/09/13 00:11:23;;;;;;;2.53;1.88;;;21.00;99.70;;;;;;5047213;28;20200;-30
2022/09/13 00:13:52;;;;;;;2.10;1.90;;;20.90;99.70;;;;;;5048639;28;20291;-30
2022/09/13 00:16:22;;;;;;;2.78;2.08;;;20.90;99.70;;;;;;5058401;28;21024;-31
2022/09/13 00:18:53;;;;;;;3.75;1.98;;;20.90;99.70;;;;;;5065252;28;20200;-30
2022/09/13 00:21:25;;;;;;;2.08;1.85;;;20.80;99.70;;;;;;5049494;28;20204;-32
2022/09/13 00:23:55;;;;;;;3.00;1.95;;;20.80;99.70;;;;;;5055105;28;20207;-30
2022/09/13 00:26:27;;;;;;;4.45;2.40;;;20.80;99.70;;;;;;5063310;28;20207;-30
2022/09/13 00:28:57;;;;;;;2.15;1.95;;;20.70;99.70;;;;;;5059665;28;20282;-31
2022/09/13 00:31:29;;;;;;;4.53;2.50;;;20.70;99.80;;;;;;5067736;28;20673;-30
2022/09/13 00:33:58;;;;;;;2.58;2.33;;;20.70;99.90;;;;;;5067210;28;20227;-30
2022/09/13 00:36:26;;;;;;;2.92;2.10;;;20.70;99.80;;;;;;5064941;28;20208;-30
2022/09/13 00:38:53;;;;;;;2.83;2.20;;;20.70;99.80;;;;;;5068436;28;20569;-31
2022/09/13 00:41:21;;;;;;;2.55;2.10;;;20.60;99.80;;;;;;5070211;28;20569;-30
2022/09/13 00:43:54;;;;;;;2.97;2.47;;;20.60;99.80;;;;;;5061585;28;20210;-31
2022/09/13 00:46:36;;;;;;;3.08;2.38;;;20.60;99.80;;;;;;5058071;28;20196;-31
2022/09/13 00:49:22;;;;;;;2.70;2.42;;;20.60;99.80;;;;;;5047132;28;20203;-31
2022/09/13 00:52:05;;;;;;;6.82;2.30;;;20.60;99.90;;;;;;5046903;28;20192;-31
2022/09/13 00:54:47;;;;;;;3.05;2.22;;;20.60;99.90;;;;;;5056869;28;20239;-30
2022/09/13 00:57:23;;;;;;;4.78;2.25;;;20.60;99.90;;;;;;5046227;28;20629;-31
2022/09/13 01:00:15;;;;;;;6.32;2.25;;;20.50;99.90;;;;;;5052831;28;20654;-31
2022/09/13 01:02:56;;;;;;;2.47;2.25;;;20.50;99.90;;;;;;5048064;28;20200;-31
2022/09/13 01:05:31;;;;;;;2.95;2.30;;;20.50;99.90;;;;;;5053935;28;20211;-31
2022/09/13 01:07:59;;;;;;;2.15;1.95;;;20.50;99.90;;;;;;5054937;28;20207;-32
2022/09/13 01:10:30;;;;;;;5.45;2.40;;;20.50;99.90;;;;;;5061468;28;20202;-33
2022/09/13 01:13:13;;;;;;;3.08;1.90;;;20.50;99.90;;;;;;5062287;28;20574;-32
2022/09/13 01:15:43;;;;;;;2.40;2.20;;;20.50;99.90;;;;;;5064178;28;20234;-32
2022/09/13 01:18:11;;;;;;;2.70;2.20;;;20.50;99.90;;;;;;5057387;28;20338;-33
2022/09/13 01:20:59;;;;;;;2.22;2.13;;;20.50;99.90;;;;;;5058676;28;20697;-32
2022/09/13 01:24:01;;;;;;;2.40;2.00;;;20.50;99.90;;;;;;5056387;28;20567;-33
2022/09/13 01:26:49;;;;;;;4.22;2.20;;;20.50;99.90;;;;;;5055226;28;20247;-32
2022/09/13 01:29:48;;;;;;;4.00;2.30;;;20.40;99.90;;;;;;5053916;28;20207;-33
2022/09/13 01:32:27;;;;;;;2.45;2.20;;;20.40;99.90;;;;;;5065015;28;20199;-32
2022/09/13 01:35:15;;;;;;;2.47;2.10;;;20.40;99.90;;;;;;5055312;28;20710;-32
2022/09/13 01:37:57;;;;;;;2.88;2.10;;;20.40;99.90;;;;;;5050077;28;20200;-32
2022/09/13 01:40:50;;;;;;;2.47;2.00;;;20.40;99.90;;;;;;5059069;28;20609;-31
2022/09/13 01:43:30;;;;;;;4.22;2.05;;;20.40;99.90;;;;;;5057775;28;20220;-32
2022/09/13 01:46:23;;;;;;;2.67;1.90;;;20.40;99.90;;;;;;5065810;28;20664;-33
2022/09/13 01:48:59;;;;;;;3.22;2.08;;;20.40;99.90;;;;;;5056218;28;20716;-34
2022/09/13 01:51:46;;;;;;;2.30;2.10;;;20.40;99.90;;;;;;5063949;28;20223;-32
2022/09/13 01:54:30;;;;;;;2.60;2.10;;;20.40;99.90;;;;;;5057053;28;20558;-33
2022/09/13 01:57:16;;;;;;;3.03;2.40;;;20.40;99.90;;;;;;5055346;28;20206;-33
2022/09/13 01:59:53;;;;;;;5.63;2.28;;;20.40;99.90;;;;;;5049889;28;20604;-33
2022/09/13 02:02:47;;;;;;;2.80;2.20;;;20.40;99.90;;;;;;5057324;28;20915;-34
2022/09/13 02:05:30;;;;;;;2.20;2.00;;;20.40;99.90;;;;;;5050684;28;20572;-33
2022/09/13 02:08:10;;;;;;;2.97;2.50;;;20.40;99.90;;;;;;5062991;28;20757;-33
2022/09/13 02:10:43;;;;;;;3.30;2.42;;;20.40;99.90;;;;;;5053748;28;21235;-32
2022/09/13 02:13:22;;;;;;;2.85;2.10;;;20.40;99.90;;;;;;5052916;28;20277;-33
2022/09/13 02:15:59;;;;;;;2.47;2.10;;;20.40;99.90;;;;;;5063463;28;20600;-33
2022/09/13 02:18:33;;;;;;;4.97;2.45;;;20.40;99.90;;;;;;5056839;28;20262;-33
2022/09/13 02:21:23;;;;;;;3.28;2.03;;;20.40;99.90;;;;;;5055804;28;20299;-33
2022/09/13 02:23:55;;;;;;;2.95;1.75;;;20.40;99.90;;;;;;5054439;28;20196;-32
2022/09/13 02:26:24;;;;;;;4.85;1.98;;;20.40;99.90;;;;;;5066193;28;20216;-33
2022/09/13 02:28:53;;;;;;;2.78;2.10;;;20.40;99.90;;;;;;5063672;28;20670;-33
2022/09/13 02:31:32;;;;;;;2.60;2.40;;;20.40;99.90;;;;;;5056087;28;20212;-31
2022/09/13 02:34:06;;;;;;;2.70;2.50;;;20.50;99.90;;;;;;5058607;28;20721;-31
2022/09/13 02:36:39;;;;;;;2.10;1.90;;;20.40;99.90;;;;;;5065531;28;20215;-33
2022/09/13 02:39:13;;;;;;;3.75;2.35;;;20.50;99.90;;;;;;5049813;28;20200;-33
2022/09/13 02:42:04;;;;;;;2.60;1.98;;;20.50;99.90;;;;;;5059432;28;20800;-32
2022/09/13 02:44:36;;;;;;;3.25;2.05;;;20.50;99.90;;;;;;5055145;28;20281;-31
2022/09/13 02:47:06;;;;;;;3.05;2.17;;;20.50;99.90;;;;;;5063505;28;20203;-31
2022/09/13 02:50:04;;;;;;;3.58;2.08;;;20.50;99.90;;;;;;5046798;28;20200;-33
2022/09/13 02:52:36;;;;;;;2.35;2.15;;;20.50;99.90;;;;;;5049211;28;20204;-33
2022/09/13 02:55:08;;;;;;;4.63;2.40;;;20.50;99.90;;;;;;5046875;28;20200;-33
2022/09/13 02:57:47;;;;;;;3.15;2.20;;;20.50;99.90;;;;;;5049515;28;20622;-33
2022/09/13 03:00:16;;;;;;;2.22;2.03;;;20.50;99.90;;;;;;5051056;28;20556;-32
2022/09/13 03:02:47;;;;;;;2.25;2.03;;;20.50;99.90;;;;;;5049626;28;20208;-34
2022/09/13 03:05:18;;;;;;;2.28;2.08;;;20.50;99.90;;;;;;5052539;28;20200;-32
2022/09/13 03:07:46;;;;;;;2.20;2.00;;;20.50;99.90;;;;;;5065553;28;20246;-33
2022/09/13 03:10:16;;;;;;;2.20;1.95;;;20.50;99.90;;;;;;5058324;28;20280;-33
2022/09/13 03:12:46;;;;;;;2.40;2.10;;;20.50;99.90;;;;;;5061443;28;20204;-33
2022/09/13 03:15:16;;;;;;;2.20;2.00;;;20.50;99.90;;;;;;5060409;28;20204;-33
2022/09/13 03:17:47;;;;;;;2.30;2.10;;;20.50;99.90;;;;;;5059473;28;20219;-33
2022/09/13 03:20:26;;;;;;;2.83;2.17;;;20.50;99.90;;;;;;5050801;28;20238;-33
2022/09/13 03:23:08;;;;;;;4.20;2.40;;;20.50;99.90;;;;;;5055335;28;20670;-33
2022/09/13 03:26:04;;;;;;;3.45;2.20;;;20.50;99.90;;;;;;5051022;28;20219;-33
2022/09/13 03:28:55;;;;;;;5.65;2.28;;;20.50;99.90;;;;;;5051347;28;20204;-33
2022/09/13 03:31:43;;;;;;;3.00;2.28;;;20.50;99.90;;;;;;5048118;28;20212;-34
2022/09/13 03:34:21;;;;;;;3.22;2.15;;;20.50;99.90;;;;;;5061233;28;20634;-32
2022/09/13 03:37:01;;;;;;;2.50;2.30;;;20.50;99.90;;;;;;5063299;28;20305;-32
2022/09/13 03:40:02;;;;;;;3.17;2.17;;;20.50;99.90;;;;;;5047159;28;20287;-32
2022/09/13 03:43:04;;;;;;;3.22;2.08;;;20.50;99.90;;;;;;5057800;28;20696;-33
2022/09/13 03:45:38;;;;;;;4.93;2.20;;;20.50;99.90;;;;;;5041681;28;20220;-32
2022/09/13 03:48:10;;;;;;;3.05;2.55;;;20.50;99.90;;;;;;5046300;28;20203;-33
2022/09/13 03:50:40;;;;;;;2.40;2.20;;;20.50;99.90;;;;;;5055807;28;20294;-33
2022/09/13 03:53:14;;;;;;;3.40;2.50;;;20.50;99.90;;;;;;5053963;28;20223;-33
2022/09/13 03:55:42;;;;;;;2.70;2.20;;;20.50;99.90;;;;;;5058769;28;20203;-33
2022/09/13 03:58:20;;;;;;;2.33;2.13;;;20.50;99.90;;;;;;5061099;28;20270;-32
2022/09/13 04:00:47;;;;;;;2.83;2.22;;;20.50;99.90;;;;;;5063836;28;20219;-32
2022/09/13 04:03:17;;;;;;;4.07;2.22;;;20.50;99.90;;;;;;5065634;28;20641;-32
2022/09/13 04:05:47;;;;;;;3.33;2.13;;;20.50;99.90;;;;;;5052715;28;20315;-33
2022/09/13 04:08:14;;;;;;;2.13;2.00;;;20.50;99.90;;;;;;5049808;28;20674;-32
2022/09/13 04:10:41;;;;;;;4.07;2.35;;;20.50;99.90;;;;;;5050641;28;20257;-33
2022/09/13 04:13:08;;;;;;;3.33;2.22;;;20.50;99.90;;;;;;5054335;28;20653;-34
2022/09/13 04:15:42;;;;;;;2.75;2.40;;;20.50;99.90;;;;;;5062959;28;20673;-33
2022/09/13 04:18:16;;;;;;;2.50;2.30;;;20.50;99.90;;;;;;5060886;28;20309;-34
2022/09/13 04:20:43;;;;;;;3.70;2.38;;;20.50;99.90;;;;;;5058309;28;20362;-31
2022/09/13 04:23:11;;;;;;;2.35;2.13;;;20.50;99.90;;;;;;5061549;28;20222;-31
2022/09/13 04:25:40;;;;;;;4.30;2.25;;;20.50;99.90;;;;;;5060771;28;20200;-31
2022/09/13 04:28:08;;;;;;;4.68;2.22;;;20.50;99.90;;;;;;5059602;28;20207;-31
2022/09/13 04:30:35;;;;;;;3.50;2.72;;;20.50;99.90;;;;;;5052828;28;20199;-31
2022/09/13 04:33:08;;;;;;;3.00;2.70;;;20.50;99.90;;;;;;5063485;28;20207;-31
2022/09/13 04:35:36;;;;;;;2.75;2.47;;;20.50;99.90;;;;;;5061079;28;20974;-31
2022/09/13 04:38:03;;;;;;;4.38;2.67;;;20.50;99.90;;;;;;5063513;28;20212;-31
2022/09/13 04:40:30;;;;;;;3.00;2.22;;;20.50;99.90;;;;;;5054336;28;20281;-31
2022/09/13 04:42:59;;;;;;;7.15;2.78;;;20.50;99.90;;;;;;5056118;28;20691;-33
2022/09/13 04:45:29;;;;;;;3.25;2.28;;;20.50;99.90;;;;;;5053574;28;20217;-33
2022/09/13 04:47:59;;;;;;;2.75;2.42;;;20.50;99.90;;;;;;5063409;28;20249;-33
2022/09/13 04:50:26;;;;;;;3.67;2.72;;;20.50;99.90;;;;;;5048664;28;20716;-33
2022/09/13 04:52:54;;;;;;;3.45;2.58;;;20.50;99.90;;;;;;5060297;28;20257;-33
2022/09/13 04:55:21;;;;;;;4.65;2.35;;;20.50;99.90;;;;;;5058281;28;20208;-33
2022/09/13 04:57:53;;;;;;;3.30;2.80;;;20.50;99.90;;;;;;5047857;28;20343;-33
2022/09/13 05:00:25;;;;;;;3.08;2.58;;;20.50;99.90;;;;;;5047124;28;20226;-34
2022/09/13 05:02:57;;;;;;;5.28;2.38;;;20.50;99.90;;;;;;5049342;28;20918;-33
2022/09/13 05:05:28;;;;;;;4.38;2.70;;;20.50;99.90;;;;;;5055652;28;20622;-33
2022/09/13 05:07:55;;;;;;;5.55;2.58;;;20.50;99.90;;;;;;5052119;28;20775;-33
2022/09/13 05:10:24;;;;;;;20.67;4.82;;;20.40;99.90;;;;;;5046444;28;20625;-33
2022/09/13 05:12:52;;;;;;;22.25;4.72;;;20.50;99.90;;;;;;5050606;28;20213;-34
2022/09/13 05:15:21;;;;;;;8.55;3.33;;;20.40;99.90;;;;;;5045583;28;20207;-34
2022/09/13 05:17:48;;;;;;;12.48;3.85;;;20.50;99.90;;;;;;5050725;28;20196;-33
2022/09/13 05:20:17;;;;;;;14.10;3.60;;;20.40;99.90;;;;;;5049709;28;20322;-32
2022/09/13 05:22:45;;;;;;;7.82;3.53;;;20.40;99.90;;;;;;5050193;28;20212;-34
2022/09/13 05:25:12;;;;;;;7.68;3.08;;;20.40;99.90;;;;;;5055033;28;20303;-32
2022/09/13 05:27:44;;;;;;;4.68;2.85;;;20.50;99.90;;;;;;5052602;28;20551;-33
2022/09/13 05:30:12;;;;;;;16.02;3.80;;;20.50;99.90;;;;;;5055920;28;20208;-34
2022/09/13 05:32:42;;;;;;;11.80;3.67;;;20.50;99.90;;;;;;5050464;28;20306;-34
2022/09/13 05:35:12;;;;;;;12.90;3.90;;;20.50;99.90;;;;;;5049749;28;20204;-34
2022/09/13 05:37:39;;;;;;;10.02;3.95;;;20.50;99.90;;;;;;5059098;28;20286;-33
2022/09/13 05:40:07;;;;;;;10.70;2.95;;;20.50;99.90;;;;;;5061197;28;20214;-33
2022/09/13 05:42:42;;;;;;;5.95;3.38;;;20.50;99.90;;;;;;5049106;28;20208;-33
2022/09/13 05:45:09;;;;;;;6.70;3.35;;;20.50;99.90;;;;;;5056235;28;20204;-33
2022/09/13 05:47:39;;;;;;;5.03;2.95;;;20.50;99.90;;;;;;5062251;28;20216;-33
2022/09/13 05:50:09;;;;;;;8.25;3.47;;;20.50;99.90;;;;;;5044707;28;20200;-34
2022/09/13 05:52:54;;;;;;;6.25;3.05;;;20.50;99.90;;;;;;5051940;28;20351;-34
2022/09/13 05:55:21;;;;;;;9.23;3.17;;;20.60;99.90;;;;;;5049830;28;20196;-34
2022/09/13 05:57:53;;;;;;;8.45;3.20;;;20.60;99.90;;;;;;5063425;28;20239;-32
2022/09/13 06:00:20;;;;;;;12.70;3.05;;;20.60;99.90;;;;;;5066197;28;20203;-33
2022/09/13 06:02:48;;;;;;;8.13;3.22;;;20.60;99.90;;;;;;5054541;28;20866;-34
2022/09/13 06:05:15;;;;;;;11.32;3.22;;;20.60;99.90;;;;;;5056036;28;20209;-33
2022/09/13 06:07:42;;;;;;;21.08;4.85;;;20.60;99.90;;;;;;5060980;28;20215;-33
2022/09/13 06:10:10;;;;;;;19.30;4.97;;;20.60;99.90;;;;;;5058890;28;20539;-32
2022/09/13 06:12:41;;;;;;;22.80;4.85;;;20.60;99.90;;;;;;5052967;28;20200;-32
2022/09/13 06:15:10;;;;;;;21.17;5.85;;;20.60;99.90;;;;;;5081463;28;20208;-34
2022/09/13 06:17:39;;;;;;;13.88;4.07;;;20.60;99.90;;;;;;5049167;28;20219;-32
2022/09/13 06:20:08;;;;;;;12.60;3.90;;;20.60;99.90;;;;;;5059905;28;20681;-33
2022/09/13 06:22:38;;;;;;;10.70;3.72;;;20.60;99.90;;;;;;5068825;28;20231;-32
2022/09/13 06:25:08;;;;;;;7.47;3.85;;;20.60;99.90;;;;;;5066157;28;20203;-32
2022/09/13 06:27:35;;;;;;;12.52;3.65;;;20.60;99.90;;;;;;5051344;28;20204;-31
2022/09/13 06:30:03;;;;;;;10.52;3.63;;;20.60;99.90;;;;;;5058632;28;20577;-31
2022/09/13 06:32:32;;;;;;;7.65;3.65;;;20.60;99.90;;;;;;5088766;28;20217;-31
2022/09/13 06:35:00;;;;;;;7.28;3.42;;;20.60;99.90;;;;;;5064223;28;20199;-31
2022/09/13 06:37:29;;;;;;;8.75;3.63;;;20.70;99.90;;;;;;5065470;28;20565;-32
2022/09/13 06:40:04;;;;;;;4.53;2.97;;;20.70;99.90;;;;;;5061370;28;20226;-33
2022/09/13 06:42:34;;;;;;;6.50;3.20;;;20.70;99.90;;;;;;5056775;28;20697;-32
2022/09/13 06:45:04;;;;;;;6.60;3.10;;;20.70;99.90;;;;;;5057956;28;20207;-32
2022/09/13 06:47:31;;;;;;;8.93;3.40;;;20.70;99.90;;;;;;5056595;28;20206;-32
2022/09/13 06:50:03;;;;;;;10.35;3.33;;;20.70;99.90;;;;;;5062947;28;20698;-32
2022/09/13 06:52:33;;;;;;;7.93;3.72;;;20.80;99.90;;;;;;5053689;28;20235;-33
2022/09/13 06:55:00;;;;;;;7.15;3.40;;;20.80;99.90;;;;;;5068578;28;20207;-33
2022/09/13 06:57:30;;;;;;;6.63;3.15;;;20.80;99.90;;;;;;5065962;28;20738;-33
2022/09/13 07:00:00;;;;;;;9.68;3.10;;;20.80;99.90;;;;;;5048375;28;20315;-34
2022/09/13 07:02:27;;;;;;;9.55;3.15;;;20.90;99.90;;;;;;5052904;28;20261;-33
2022/09/13 07:04:57;;;;;;;7.00;3.20;;;20.90;99.90;;;;;;5075940;28;20217;-32
2022/09/13 07:07:24;;;;;;;5.55;3.20;;;21.00;99.90;;;;;;5063480;28;20685;-33
2022/09/13 07:09:54;;;;;;;10.77;3.55;;;21.00;99.90;;;;;;5063537;28;20227;-32
2022/09/13 07:12:26;;;;;;;6.60;2.95;;;21.10;99.90;;;;;;5062183;28;20742;-34
2022/09/13 07:14:56;;;;;;;5.25;3.10;;;21.10;99.90;;;;;;5048257;28;20208;-32
2022/09/13 07:17:31;;;;;;;4.13;2.88;;;21.10;99.90;;;;;;5053876;28;20273;-34
2022/09/13 07:19:59;;;;;;;5.75;2.85;;;21.20;99.90;;;;;;5058308;28;20805;-32
2022/09/13 07:22:28;;;;;;;7.55;3.65;;;21.20;99.90;;;;;;5086621;28;20317;-32
2022/09/13 07:24:59;;;;;;;5.20;2.97;;;21.30;99.90;;;;;;5057326;28;20694;-32
2022/09/13 07:27:30;;;;;;;5.55;3.20;;;21.30;99.90;;;;;;5059515;28;20204;-32
2022/09/13 07:30:00;;;;;;;7.90;3.30;;;21.40;99.90;;;;;;5062348;28;20298;-33
2022/09/13 07:32:31;;;;;;;15.38;3.78;;;21.40;99.90;;;;;;5047727;28;20732;-31
2022/09/13 07:34:58;;;;;;;9.80;4.13;;;21.50;99.90;;;;;;5058580;28;20203;-33
2022/09/13 07:37:28;;;;;;;9.63;4.05;;;21.60;99.90;;;;;;5063906;28;20217;-32
2022/09/13 07:39:55;;;;;;;8.60;3.35;;;21.70;99.90;;;;;;5074288;28;20266;-35
2022/09/13 07:42:23;;;;;;;11.05;3.15;;;21.80;99.90;;;;;;5062039;28;20812;-34
2022/09/13 07:44:50;;;;;;;5.00;3.08;;;21.80;99.90;;;;;;5052556;28;20659;-32
2022/09/13 07:47:18;;;;;;;5.93;3.00;;;21.90;99.90;;;;;;5057056;28;20204;-32
2022/09/13 07:49:46;;;;;;;7.93;3.92;;;22.00;99.90;;;;;;5048266;28;20242;-32
2022/09/13 07:52:15;;;;;;;9.70;3.63;;;22.00;99.90;;;;;;5057908;28;20319;-32
2022/09/13 07:54:43;;;;;;;6.25;3.20;;;22.10;99.90;;;;;;5050418;28;20204;-32
2022/09/13 07:57:15;;;;;;;8.02;3.60;;;22.20;99.90;;;;;;5051285;28;20832;-34
2022/09/13 07:59:47;;;;;;;10.75;3.63;;;22.30;99.90;;;;;;5055135;28;20258;-34
2022/09/13 08:02:19;;;;;;;10.13;3.47;;;22.30;99.90;;;;;;5067595;28;20238;-36
2022/09/13 08:04:46;;;;;;;8.88;4.10;;;22.40;99.90;;;;;;5067672;28;20264;-35
2022/09/13 08:07:16;;;;;;;8.65;3.70;;;22.50;99.90;;;;;;5062973;28;20339;-38
2022/09/13 08:09:43;;;;;;;9.88;3.60;;;22.50;99.90;;;;;;5065650;28;20208;-36
2022/09/13 08:12:13;;;;;;;8.23;3.40;;;22.60;99.90;;;;;;5069437;28;20215;-37
2022/09/13 08:14:40;;;;;;;6.70;4.05;;;22.70;99.90;;;;;;5068972;28;20265;-35
2022/09/13 08:17:10;;;;;;;4.50;3.03;;;22.70;99.90;;;;;;5060828;28;20551;-38
2022/09/13 08:19:37;;;;;;;6.47;3.13;;;22.70;99.90;;;;;;5058024;28;20291;-38
2022/09/13 08:22:04;;;;;;;4.97;2.60;;;22.70;99.90;;;;;;5052189;28;20220;-39
2022/09/13 08:24:31;;;;;;;4.68;2.97;;;22.70;99.90;;;;;;5049776;28;20207;-44
2022/09/13 08:27:02;;;;;;;4.78;2.42;;;22.70;99.90;;;;;;5063323;28;20219;-37
2022/09/13 08:29:33;;;;;;;6.50;3.50;;;22.80;99.90;;;;;;5065396;28;20203;-38
2022/09/13 08:32:02;;;;;;;6.22;3.40;;;22.80;99.90;;;;;;5052048;28;20717;-37
2022/09/13 08:34:31;;;;;;;5.28;3.15;;;22.80;99.90;;;;;;5047666;28;20200;-37
2022/09/13 08:37:01;;;;;;;4.80;2.85;;;22.90;99.90;;;;;;5049046;28;20303;-35
2022/09/13 08:39:32;;;;;;;5.43;3.33;;;22.90;99.90;;;;;;5063115;28;20536;-37
2022/09/13 08:42:28;;;;;;;7.57;3.33;;;22.90;99.90;;;;;;5060274;28;20227;-36
2022/09/13 08:44:58;;;;;;;4.22;3.10;;;23.00;99.90;;;;;;5049267;28;20270;-37
2022/09/13 08:47:28;;;;;;;11.00;3.50;;;23.00;99.90;;;;;;5051441;28;20215;-37
2022/09/13 08:50:31;;;;;;;7.40;3.45;;;23.00;99.90;;;;;;5048436;28;20732;-36
2022/09/13 08:53:23;;;;;;;9.70;3.50;;;23.10;99.90;;;;;;5048353;28;20299;-37
2022/09/13 08:55:59;;;;;;;9.38;3.40;;;23.10;99.90;;;;;;5048681;28;20216;-37
2022/09/13 08:58:43;;;;;;;7.35;3.88;;;23.20;99.90;;;;;;5058236;28;20240;-37
2022/09/13 09:01:46;;;;;;;7.28;3.70;;;23.20;99.90;;;;;;5049998;28;20258;-37
2022/09/13 09:04:25;;;;;;;5.60;3.22;;;23.30;99.90;;;;;;5050272;28;20223;-37
2022/09/13 09:07:17;;;;;;;4.45;2.95;;;23.40;99.90;;;;;;5048168;28;20228;-48
2022/09/13 09:09:58;;;;;;;6.25;3.55;;;23.40;99.90;;;;;;5065594;28;20768;-36
2022/09/13 09:12:32;;;;;;;6.13;4.28;;;23.50;99.90;;;;;;5065043;28;20705;-37
2022/09/13 09:15:09;;;;;;;6.18;4.20;;;23.50;99.90;;;;;;5056705;28;20347;-37
2022/09/13 09:18:02;;;;;;;5.97;3.67;;;23.60;99.90;;;;;;5067252;28;20237;-36
2022/09/13 09:20:36;;;;;;;8.27;4.07;;;23.70;99.90;;;;;;5047648;28;20632;-38
2022/09/13 09:23:15;;;;;;;7.55;3.58;;;23.70;99.90;;;;;;5050329;28;20887;-37
2022/09/13 09:25:51;;;;;;;5.05;3.30;;;23.80;99.90;;;;;;5064416;28;20208;-37
2022/09/13 09:28:21;;;;;;;4.85;3.15;;;23.90;99.90;;;;;;5065987;28;20679;-37
2022/09/13 09:31:03;;;;;;;5.75;3.35;;;24.00;99.90;;;;;;5068833;28;20265;-37
2022/09/13 09:33:53;;;;;;;5.68;3.50;;;24.10;99.90;;;;;;5068083;28;20208;-38
2022/09/13 09:36:31;;;;;;;6.38;3.67;;;24.20;99.90;;;;;;5051105;28;20303;-38
2022/09/13 09:39:09;;;;;;;5.63;3.53;;;24.20;99.90;;;;;;5051619;28;20212;-38
2022/09/13 09:41:37;;;;;;;7.35;3.75;;;24.30;99.90;;;;;;5054704;28;20228;-34
2022/09/13 09:44:26;;;;;;;6.93;3.45;;;24.30;99.90;;;;;;5062690;28;20199;-33
2022/09/13 09:47:06;;;;;;;7.65;3.90;;;24.40;99.90;;;;;;5050277;28;20331;-33
2022/09/13 09:52:58;;;;;;;4.40;2.90;;;24.50;99.90;;;;;;5051024;28;20941;-38
2022/09/13 09:55:32;;;;;;;9.60;3.28;;;24.50;99.90;;;;;;5051298;28;20291;-36
2022/09/13 09:58:07;;;;;;;5.00;3.20;;;24.60;99.90;;;;;;5064321;28;20243;-38
2022/09/13 10:00:38;;;;;;;5.65;3.28;;;24.70;99.90;;;;;;5060153;28;20265;-36
2022/09/13 10:03:17;;;;;;;5.53;3.15;;;24.70;99.90;;;;;;5050328;28;20228;-39
2022/09/13 10:05:47;;;;;;;7.00;3.13;;;24.80;99.90;;;;;;5065573;28;20223;-37
2022/09/13 10:08:30;;;;;;;3.42;2.65;;;24.90;99.90;;;;;;5060148;28;20208;-37
2022/09/13 10:11:04;;;;;;;4.13;2.65;;;24.90;99.90;;;;;;5061915;28;20212;-38
2022/09/13 10:13:33;;;;;;;5.40;2.85;;;25.00;99.90;;;;;;5066609;28;20216;-37
2022/09/13 10:16:01;;;;;;;6.85;3.15;;;25.10;99.90;;;;;;5073794;28;20199;-37
2022/09/13 10:18:32;;;;;;;5.47;3.20;;;25.10;99.90;;;;;;5071676;28;20206;-37
2022/09/13 10:21:19;;;;;;;4.82;2.78;;;25.10;99.90;;;;;;5064887;28;20302;-37
2022/09/13 10:23:58;;;;;;;3.97;2.60;;;25.20;99.90;;;;;;5048880;28;20333;-38
2022/09/13 10:26:25;;;;;;;4.57;2.60;;;25.30;99.90;;;;;;5052764;28;20219;-36
2022/09/13 10:29:02;;;;;;;4.20;3.15;;;25.30;99.90;;;;;;5058799;28;20250;-35
2022/09/13 10:31:38;;;;;;;5.90;2.83;;;25.30;99.90;;;;;;5065115;28;20211;-38
2022/09/13 10:34:13;;;;;;;6.55;2.80;;;25.40;99.90;;;;;;5053021;28;20201;-37
2022/09/13 10:37:25;;;;;;;5.53;2.78;;;25.50;99.90;;;;;;5055048;28;20741;-36
2022/09/13 10:39:57;;;;;;;4.82;2.67;;;25.40;99.90;;;;;;5058008;28;20872;-37
2022/09/13 10:42:29;;;;;;;8.77;2.67;;;25.50;99.90;;;;;;5048886;28;20234;-37
2022/09/13 10:45:26;;;;;;;5.70;2.92;;;25.50;99.90;;;;;;5052614;28;20771;-38
2022/09/13 10:48:04;;;;;;;4.57;2.72;;;25.60;99.90;;;;;;5065745;28;20901;-35
2022/09/13 10:50:32;;;;;;;2.60;2.17;;;25.60;99.90;;;;;;5059495;28;20191;-36
2022/09/13 10:53:00;;;;;;;3.92;2.88;;;25.60;99.90;;;;;;5062601;28;20208;-36
2022/09/13 10:55:35;;;;;;;6.82;2.80;;;25.70;99.90;;;;;;5055121;28;20628;-37
2022/09/13 10:58:06;;;;;;;3.83;2.80;;;25.70;99.90;;;;;;5056450;28;20228;-39
2022/09/13 11:00:58;;;;;;;3.40;2.78;;;25.70;99.90;;;;;;5054232;28;20208;-34
2022/09/13 11:03:39;;;;;;;4.93;2.58;;;25.70;99.90;;;;;;5048693;28;20730;-33
2022/09/13 11:06:23;;;;;;;4.85;2.58;;;25.80;99.90;;;;;;5052915;28;20315;-33
2022/09/13 11:09:22;;;;;;;4.00;2.42;;;25.80;99.90;;;;;;5061153;28;20199;-35
2022/09/13 11:11:52;;;;;;;5.05;2.80;;;25.90;99.90;;;;;;5056653;28;20199;-35
2022/09/13 11:14:22;;;;;;;6.00;3.05;;;25.90;99.90;;;;;;5059573;28;20234;-34
2022/09/13 11:17:04;;;;;;;5.22;2.60;;;25.90;99.90;;;;;;5058038;28;20289;-35
2022/09/13 11:19:56;;;;;;;6.15;2.22;;;26.00;99.90;;;;;;5049624;28;20740;-35
2022/09/13 11:22:34;;;;;;;4.03;2.30;;;26.00;99.90;;;;;;5074119;28;20318;-35
2022/09/13 11:25:25;;;;;;;5.57;2.22;;;26.10;99.90;;;;;;5062902;28;20232;-34
2022/09/13 11:28:03;;;;;;;4.72;2.90;;;26.20;99.90;;;;;;5054579;28;20191;-33
2022/09/13 11:30:41;;;;;;;7.10;3.10;;;26.20;99.90;;;;;;5067924;28;20665;-38
2022/09/13 11:33:31;;;;;;;7.57;2.80;;;26.20;99.90;;;;;;5061463;28;20604;-34
2022/09/13 11:36:13;;;;;;;3.17;2.10;;;26.30;99.90;;;;;;5049731;28;20208;-36
2022/09/13 11:39:00;;;;;;;5.68;2.20;;;26.40;99.90;;;;;;5060175;28;20214;-35
2022/09/13 11:41:43;;;;;;;7.05;2.45;;;26.40;99.90;;;;;;5052777;28;20211;-33
2022/09/13 11:44:34;;;;;;;4.22;2.40;;;26.40;99.90;;;;;;5060484;28;20210;-34
2022/09/13 11:47:35;;;;;;;4.45;2.50;;;26.40;99.90;;;;;;5056927;28;20560;-34
2022/09/13 11:50:27;;;;;;;3.35;1.50;;;26.50;99.90;;;;;;5051251;28;20678;-38
2022/09/13 11:53:15;;;;;;;3.10;1.65;;;26.50;99.90;;;;;;5052708;28;20748;-34
2022/09/13 11:55:57;;;;;;;5.25;2.22;;;26.50;99.90;;;;;;5052132;28;20253;-34
2022/09/13 11:58:49;;;;;;;7.97;2.30;;;26.50;99.90;;;;;;5060749;28;20802;-34
2022/09/13 12:01:39;;;;;;;3.08;2.20;;;26.50;99.90;;;;;;5054634;28;20238;-34
2022/09/13 12:04:14;;;;;;;2.10;1.70;;;26.50;99.90;;;;;;5060453;28;20828;-35
2022/09/13 12:06:47;;;;;;;3.55;1.73;;;26.50;99.90;;;;;;5057138;28;20219;-34
2022/09/13 12:09:25;;;;;;;2.67;1.80;;;26.50;99.90;;;;;;5052234;28;20634;-37
2022/09/13 12:12:13;;;;;;;3.42;1.77;;;26.50;99.90;;;;;;5064257;28;20203;-38
2022/09/13 12:14:58;;;;;;;6.95;1.80;;;26.50;99.90;;;;;;5048916;28;20270;-37
2022/09/13 12:17:47;;;;;;;2.20;1.70;;;26.60;99.90;;;;;;5053810;28;20218;-37
2022/09/13 12:20:37;;;;;;;4.30;2.20;;;26.60;99.90;;;;;;5058461;28;20199;-37
2022/09/13 12:23:11;;;;;;;3.05;2.03;;;26.50;99.90;;;;;;5060403;28;20577;-37
2022/09/13 12:25:49;;;;;;;3.22;2.00;;;26.50;99.90;;;;;;5062390;28;20294;-37
2022/09/13 12:28:29;;;;;;;4.18;2.30;;;26.60;99.90;;;;;;5067441;28;20191;-39
2022/09/13 12:31:06;;;;;;;2.42;2.22;;;26.70;99.90;;;;;;5050142;28;20215;-36
2022/09/13 12:33:37;;;;;;;5.35;2.20;;;26.70;99.90;;;;;;5058940;28;20685;-41
2022/09/13 12:36:16;;;;;;;8.55;2.60;;;26.70;99.90;;;;;;5060234;28;20438;-36
2022/09/13 12:39:00;;;;;;;4.95;2.15;;;26.70;99.90;;;;;;5069448;28;20701;-36
2022/09/13 12:42:00;;;;;;;3.00;2.33;;;26.80;99.90;;;;;;5049869;28;20230;-36
2022/09/13 12:44:27;;;;;;;3.80;2.15;;;26.80;99.90;;;;;;5049534;28;20204;-36
2022/09/13 12:47:28;;;;;;;3.92;2.40;;;26.80;99.90;;;;;;5053679;28;20277;-38
2022/09/13 12:50:07;;;;;;;3.80;2.28;;;26.80;99.90;;;;;;5051832;28;20220;-35
2022/09/13 12:52:57;;;;;;;4.68;2.40;;;26.80;99.90;;;;;;5052583;28;20757;-35
2022/09/13 12:55:52;;;;;;;2.13;1.88;;;26.80;99.90;;;;;;5059539;28;20204;-36
2022/09/13 12:58:35;;;;;;;5.10;2.40;;;26.80;99.90;;;;;;5057523;28;20292;-35
2022/09/13 13:01:24;;;;;;;2.97;2.35;;;26.80;99.90;;;;;;5055461;28;20232;-35
2022/09/13 13:03:58;;;;;;;4.35;2.17;;;26.80;99.90;;;;;;5052115;28;20231;-35
2022/09/13 13:06:34;;;;;;;7.18;2.20;;;26.80;99.90;;;;;;5062532;28;20203;-35
2022/09/13 13:09:20;;;;;;;4.63;2.35;;;26.80;99.90;;;;;;5056099;28;20611;-39
2022/09/13 13:11:57;;;;;;;5.65;2.33;;;26.80;99.90;;;;;;5057915;28;20210;-38
2022/09/13 13:14:38;;;;;;;4.47;2.45;;;26.80;99.90;;;;;;5056724;28;20231;-38
2022/09/13 13:17:40;;;;;;;4.80;2.65;;;26.80;99.90;;;;;;5064989;28;20295;-38
2022/09/13 13:20:44;;;;;;;4.68;2.38;;;26.80;99.90;;;;;;5063172;28;20207;-38
2022/09/13 13:23:34;;;;;;;2.90;2.30;;;26.80;99.90;;;;;;5056943;28;20219;-38
2022/09/13 13:26:17;;;;;;;5.60;2.60;;;26.70;99.90;;;;;;5060339;28;20299;-39
2022/09/13 13:31:23;;;;;;;3.92;2.50;;;26.70;99.90;;;;;;5065231;28;20358;-38
2022/09/13 13:34:14;;;;;;;3.38;2.60;;;26.70;99.90;;;;;;5057648;28;20230;-38
2022/09/13 13:36:41;;;;;;;5.05;2.58;;;26.70;99.90;;;;;;5056928;28;20303;-38